createdAt,value
2022-11-22T00:00:03.370Z,2.58
2022-11-22T00:02:51.020Z,2.80
2022-11-22T00:05:39.279Z,2.53
2022-11-22T00:08:27.160Z,2.90
2022-11-22T00:11:15.165Z,2.35
2022-11-22T00:14:03.119Z,2.30
2022-11-22T00:16:52.436Z,2.42
2022-11-22T00:19:40.453Z,2.88
2022-11-22T00:22:28.471Z,2.65
2022-11-22T00:25:17.030Z,2.50
2022-11-22T00:28:04.839Z,2.60
2022-11-22T00:30:52.691Z,2.97
2022-11-22T00:33:41.930Z,3.03
2022-11-22T00:36:29.762Z,2.70
2022-11-22T00:39:17.601Z,2.72
2022-11-22T00:42:05.806Z,2.80
2022-11-22T00:44:53.514Z,3.15
2022-11-22T00:47:41.618Z,2.72
2022-11-22T00:50:30.906Z,3.10
2022-11-22T00:53:18.596Z,2.70
2022-11-22T00:56:06.772Z,2.63
2022-11-22T00:58:54.539Z,3.10
2022-11-22T01:01:42.503Z,2.47
2022-11-22T01:04:30.486Z,2.63
2022-11-22T01:07:19.918Z,2.75
2022-11-22T01:10:08.437Z,3.30
2022-11-22T01:12:57.883Z,2.88
2022-11-22T01:16:35.494Z,2.55
2022-11-22T01:19:23.391Z,2.65
2022-11-22T01:22:11.431Z,3.03
2022-11-22T01:25:00.708Z,3.10
2022-11-22T01:27:50.920Z,3.97
2022-11-22T01:30:40.181Z,3.17
2022-11-22T01:33:29.254Z,3.33
2022-11-22T01:36:17.288Z,3.00
2022-11-22T01:39:15.165Z,3.22
2022-11-22T01:42:04.615Z,2.67
2022-11-22T01:44:54.524Z,3.78
2022-11-22T01:47:42.592Z,3.53
2022-11-22T01:50:32.389Z,3.40
2022-11-22T01:53:29.176Z,3.65
2022-11-22T01:56:19.993Z,2.97
2022-11-22T01:59:13.623Z,3.47
2022-11-22T02:02:02.345Z,4.03
2022-11-22T02:04:51.915Z,3.20
2022-11-22T02:07:47.642Z,3.72
2022-11-22T02:10:38.716Z,3.60
2022-11-22T02:14:30.385Z,3.58
2022-11-22T02:17:19.520Z,2.70
2022-11-22T02:20:09.448Z,3.40
2022-11-22T02:23:04.506Z,3.58
2022-11-22T02:25:58.933Z,3.40
2022-11-22T02:28:47.255Z,3.20
2022-11-22T02:34:44.354Z,3.22
2022-11-22T02:37:43.223Z,3.13
2022-11-22T02:40:40.684Z,2.92
2022-11-22T02:43:46.167Z,3.00
2022-11-22T02:46:55.066Z,3.00
2022-11-22T02:49:49.094Z,3.10
2022-11-22T02:52:38.792Z,3.00
2022-11-22T02:55:28.902Z,3.40
2022-11-22T02:58:20.988Z,2.67
2022-11-22T03:01:16.084Z,2.92
2022-11-22T03:04:25.284Z,2.60
2022-11-22T03:07:19.079Z,2.47
2022-11-22T03:10:10.587Z,2.17
2022-11-22T03:13:06.515Z,2.80
2022-11-22T03:15:55.974Z,2.70
2022-11-22T03:18:53.766Z,2.78
2022-11-22T03:21:44.582Z,2.88
2022-11-22T03:24:50.400Z,2.75
2022-11-22T03:27:40.711Z,2.83
2022-11-22T03:30:31.945Z,2.80
2022-11-22T03:33:21.589Z,2.70
2022-11-22T03:36:18.745Z,2.72
2022-11-22T03:39:08.432Z,2.30
2022-11-22T03:41:59.562Z,2.63
2022-11-22T03:44:49.322Z,3.20
2022-11-22T03:47:39.118Z,2.35
2022-11-22T03:50:30.960Z,2.28
2022-11-22T03:53:30.115Z,2.60
2022-11-22T03:56:27.023Z,2.60
2022-11-22T03:59:16.773Z,2.65
2022-11-22T04:02:10.657Z,2.60
2022-11-22T04:07:42.108Z,2.92
2022-11-22T04:10:31.308Z,2.75
2022-11-22T04:13:19.288Z,2.80
2022-11-22T04:16:06.399Z,2.45
2022-11-22T04:18:54.052Z,2.42
2022-11-22T04:21:41.031Z,2.63
2022-11-22T04:24:46.405Z,2.80
2022-11-22T04:27:35.463Z,2.40
2022-11-22T04:30:45.443Z,2.20
2022-11-22T04:33:32.364Z,2.20
2022-11-22T04:36:20.204Z,2.60
2022-11-22T04:39:08.202Z,2.60
2022-11-22T04:42:10.964Z,2.47
2022-11-22T04:45:00.168Z,2.65
2022-11-22T04:48:00.164Z,2.38
2022-11-22T04:51:05.998Z,2.70
2022-11-22T04:53:53.823Z,2.17
2022-11-22T04:56:41.663Z,2.88
2022-11-22T04:59:29.941Z,2.30
2022-11-22T05:02:19.382Z,2.50
2022-11-22T05:05:08.167Z,2.60
2022-11-22T05:07:56.618Z,2.53
2022-11-22T05:11:07.428Z,2.42
2022-11-22T05:13:55.431Z,2.58
2022-11-22T05:21:00.175Z,2.15
2022-11-22T05:23:56.795Z,2.70
2022-11-22T05:26:44.715Z,2.70
2022-11-22T05:29:32.777Z,2.50
2022-11-22T05:32:20.904Z,2.60
2022-11-22T05:35:09.484Z,2.75
2022-11-22T05:37:59.591Z,2.42
2022-11-22T05:40:47.526Z,2.45
2022-11-22T05:43:35.593Z,2.08
2022-11-22T05:46:26.220Z,2.10
2022-11-22T05:49:14.116Z,2.63
2022-11-22T05:52:02.759Z,3.05
2022-11-22T05:54:51.984Z,2.03
2022-11-22T05:57:39.885Z,2.30
2022-11-22T06:00:28.160Z,2.10
2022-11-22T06:03:15.885Z,2.67
2022-11-22T06:06:03.835Z,2.13
2022-11-22T06:08:52.031Z,1.90
2022-11-22T06:11:41.510Z,2.90
2022-11-22T06:14:29.452Z,3.38
2022-11-22T06:17:17.571Z,3.00
2022-11-22T06:20:06.659Z,3.70
2022-11-22T06:22:54.839Z,4.15
2022-11-22T06:25:42.712Z,3.33
2022-11-22T06:28:33.730Z,2.47
2022-11-22T06:31:22.948Z,2.80
2022-11-22T06:34:13.414Z,3.00
2022-11-22T06:37:01.272Z,2.70
2022-11-22T06:39:50.251Z,3.10
2022-11-22T06:42:38.436Z,3.33
2022-11-22T06:45:27.463Z,3.00
2022-11-22T06:48:15.368Z,2.30
2022-11-22T06:51:04.391Z,2.88
2022-11-22T06:53:52.900Z,2.22
2022-11-22T06:56:42.136Z,2.50
2022-11-22T06:59:30.021Z,2.10
2022-11-22T07:02:19.490Z,2.67
2022-11-22T07:05:25.339Z,2.67
2022-11-22T07:08:14.324Z,2.20
2022-11-22T07:11:04.196Z,3.03
2022-11-22T07:13:52.955Z,2.03
2022-11-22T07:16:40.855Z,2.88
2022-11-22T07:19:30.589Z,2.47
2022-11-22T07:22:18.612Z,2.72
2022-11-22T07:25:07.538Z,2.65
2022-11-22T07:27:55.475Z,2.55
2022-11-22T07:30:44.544Z,2.60
2022-11-22T07:33:32.793Z,2.63
2022-11-22T07:36:23.463Z,2.92
2022-11-22T07:39:12.279Z,3.25
2022-11-22T07:41:59.925Z,3.97
2022-11-22T07:44:47.885Z,4.10
2022-11-22T07:47:35.831Z,3.60
2022-11-22T07:50:23.852Z,3.70
2022-11-22T07:53:13.189Z,3.65
2022-11-22T07:56:03.460Z,3.15
2022-11-22T07:58:51.229Z,3.83
2022-11-22T08:01:39.273Z,3.55
2022-11-22T08:04:27.091Z,4.40
2022-11-22T08:07:15.754Z,4.40
2022-11-22T08:10:05.208Z,4.10
2022-11-22T08:12:52.888Z,4.32
2022-11-22T08:15:41.000Z,4.18
2022-11-22T08:18:29.037Z,4.20
2022-11-22T08:21:18.259Z,4.47
2022-11-22T08:24:06.887Z,4.95
2022-11-22T08:26:56.086Z,3.72
2022-11-22T08:29:43.981Z,3.70
2022-11-22T08:32:32.058Z,3.65
2022-11-22T08:35:20.020Z,3.28
2022-11-22T08:38:07.985Z,4.32
2022-11-22T08:40:56.213Z,3.20
2022-11-22T08:43:45.796Z,3.90
2022-11-22T08:46:33.807Z,4.32
2022-11-22T08:49:21.478Z,4.00
2022-11-22T08:52:09.449Z,3.45
2022-11-22T08:54:57.394Z,3.97
2022-11-22T08:57:45.509Z,3.90
2022-11-22T09:00:34.938Z,4.22
2022-11-22T09:03:22.822Z,4.20
2022-11-22T09:09:36.972Z,3.40
2022-11-22T09:12:25.330Z,3.75
2022-11-22T09:15:13.977Z,3.67
2022-11-22T09:18:06.255Z,3.53
2022-11-22T09:20:59.718Z,3.00
2022-11-22T09:23:49.487Z,3.88
2022-11-22T09:26:37.531Z,3.45
2022-11-22T09:29:26.394Z,3.50
2022-11-22T09:32:14.325Z,3.30
2022-11-22T09:35:03.582Z,3.45
2022-11-22T09:37:51.308Z,3.20
2022-11-22T09:40:39.143Z,3.30
2022-11-22T09:43:43.731Z,3.50
2022-11-22T09:46:42.022Z,5.72
2022-11-22T09:49:36.729Z,14.70
2022-11-22T09:52:31.387Z,3.30
2022-11-22T09:55:24.921Z,3.25
2022-11-22T09:58:24.237Z,3.80
2022-11-22T10:01:17.919Z,3.67
2022-11-22T10:04:09.463Z,3.40
2022-11-22T10:07:00.165Z,2.78
2022-11-22T10:09:56.578Z,3.00
2022-11-22T10:12:50.048Z,3.03
2022-11-22T10:15:45.500Z,2.60
2022-11-22T10:18:39.649Z,2.38
2022-11-22T10:21:28.160Z,2.53
2022-11-22T10:24:19.724Z,2.50
2022-11-22T10:27:14.328Z,2.42
2022-11-22T10:30:05.475Z,1.90
2022-11-22T10:33:05.671Z,1.95
2022-11-22T10:36:18.928Z,2.40
2022-11-22T10:39:30.118Z,2.60
2022-11-22T10:42:35.635Z,2.05
2022-11-22T10:45:30.938Z,3.28
2022-11-22T10:48:29.089Z,2.00
2022-11-22T10:51:23.043Z,2.20
2022-11-22T10:54:19.505Z,2.30
2022-11-22T10:57:16.727Z,1.90
2022-11-22T11:00:20.652Z,2.10
2022-11-22T11:03:20.869Z,1.90
2022-11-22T11:06:24.583Z,2.08
2022-11-22T11:12:41.555Z,2.10
2022-11-22T11:15:38.821Z,2.10
2022-11-22T11:18:33.051Z,2.22
2022-11-22T11:21:20.881Z,2.63
2022-11-22T11:24:16.451Z,2.22
2022-11-22T11:27:04.520Z,1.90
2022-11-22T11:30:03.121Z,1.95
2022-11-22T11:32:56.994Z,2.05
2022-11-22T11:35:47.138Z,1.65
2022-11-22T11:38:37.858Z,1.83
2022-11-22T11:41:30.049Z,1.80
2022-11-22T11:44:30.045Z,1.88
2022-11-22T11:47:44.194Z,2.60
2022-11-22T11:50:33.517Z,1.80
2022-11-22T11:53:27.499Z,2.67
2022-11-22T11:56:28.356Z,2.20
2022-11-22T11:59:19.551Z,1.88
2022-11-22T12:02:15.402Z,2.10
2022-11-22T12:05:06.219Z,1.98
2022-11-22T12:07:55.570Z,2.50
2022-11-22T12:10:50.643Z,2.83
2022-11-22T12:14:12.435Z,2.60
2022-11-22T12:16:57.106Z,2.05
2022-11-22T12:19:56.638Z,1.80
2022-11-22T12:22:53.952Z,2.13
2022-11-22T12:25:45.235Z,2.10
2022-11-22T12:28:34.142Z,2.72
2022-11-22T12:31:29.876Z,2.10
2022-11-22T12:34:23.522Z,2.35
2022-11-22T12:37:18.631Z,4.00
2022-11-22T12:40:15.899Z,2.92
2022-11-22T12:43:12.604Z,3.33
2022-11-22T12:46:06.012Z,2.60
2022-11-22T12:48:56.962Z,2.97
2022-11-22T12:51:48.344Z,2.38
2022-11-22T12:54:44.656Z,2.70
2022-11-22T12:57:40.080Z,3.58
2022-11-22T13:00:33.913Z,3.40
2022-11-22T13:03:29.886Z,2.50
2022-11-22T13:06:22.977Z,3.42
2022-11-22T13:09:16.203Z,4.07
2022-11-22T13:14:56.280Z,3.10
2022-11-22T13:17:46.271Z,4.55
2022-11-22T13:20:43.063Z,5.43
2022-11-22T13:24:09.159Z,4.65
2022-11-22T13:27:10.572Z,4.10
2022-11-22T13:30:01.256Z,5.70
2022-11-22T13:32:53.859Z,3.72
2022-11-22T13:35:41.784Z,3.20
2022-11-22T13:38:29.596Z,3.22
2022-11-22T13:41:26.646Z,3.70
2022-11-22T13:44:39.288Z,3.40
2022-11-22T13:47:43.716Z,3.60
2022-11-22T13:51:03.883Z,3.47
2022-11-22T13:53:52.905Z,3.53
2022-11-22T13:57:00.323Z,3.90
2022-11-22T13:59:47.981Z,3.58
2022-11-22T14:02:36.244Z,3.90
2022-11-22T14:05:38.235Z,3.15
2022-11-22T14:08:37.022Z,3.05
2022-11-22T14:11:40.821Z,3.05
2022-11-22T14:14:38.685Z,3.60
2022-11-22T14:17:38.565Z,3.35
2022-11-22T14:20:41.110Z,3.30
2022-11-22T14:23:39.306Z,2.75
2022-11-22T14:26:34.040Z,3.17
2022-11-22T14:30:03.975Z,2.83
2022-11-22T14:32:58.620Z,2.75
2022-11-22T14:36:16.410Z,2.17
2022-11-22T14:39:44.209Z,2.17
2022-11-22T14:42:53.821Z,2.45
2022-11-22T14:45:49.736Z,2.35
2022-11-22T14:48:46.000Z,2.30
2022-11-22T14:51:34.424Z,2.40
2022-11-22T14:54:28.044Z,2.17
2022-11-22T14:57:19.900Z,1.95
2022-11-22T15:00:19.577Z,2.10
2022-11-22T15:03:44.136Z,2.15
2022-11-22T15:09:22.732Z,1.83
2022-11-22T15:10:23.838Z,2.05
2022-11-22T15:13:47.903Z,1.85
2022-11-22T15:58:14.535Z,2.15
2022-11-22T16:01:20.154Z,2.75
2022-11-22T16:04:19.913Z,2.80
2022-11-22T16:07:08.615Z,2.92
2022-11-22T16:09:56.717Z,2.60
2022-11-22T16:12:44.585Z,2.67
2022-11-22T16:15:36.508Z,3.20
2022-11-22T16:18:27.985Z,2.67
2022-11-22T16:21:30.367Z,2.78
2022-11-22T16:24:19.795Z,3.13
2022-11-22T16:27:16.033Z,3.00
2022-11-22T16:30:03.973Z,3.00
2022-11-22T16:32:56.416Z,3.10
2022-11-22T16:35:44.731Z,3.08
2022-11-22T16:38:32.688Z,2.60
2022-11-22T16:41:22.791Z,3.15
2022-11-22T16:44:14.631Z,3.33
2022-11-22T16:47:02.529Z,3.45
2022-11-22T16:49:51.605Z,3.03
2022-11-22T16:52:39.309Z,4.97
2022-11-22T16:55:27.266Z,3.50
2022-11-22T16:58:17.490Z,3.40
2022-11-22T17:01:05.457Z,3.70
2022-11-22T17:03:56.053Z,3.78
2022-11-22T17:06:44.908Z,4.00
2022-11-22T17:09:34.398Z,3.83
2022-11-22T17:12:30.464Z,3.92
2022-11-22T17:15:17.207Z,3.90
2022-11-22T17:18:25.083Z,3.55
2022-11-22T17:21:18.879Z,4.28
2022-11-22T17:24:24.032Z,4.30
2022-11-22T17:27:13.786Z,4.40
2022-11-22T17:30:01.835Z,4.30
2022-11-22T17:32:49.834Z,4.20
2022-11-22T17:35:38.048Z,4.38
2022-11-22T17:38:51.180Z,4.57
2022-11-22T17:41:40.485Z,4.72
2022-11-22T17:44:28.246Z,4.43
2022-11-22T17:47:16.171Z,5.20
2022-11-22T17:50:04.261Z,4.32
2022-11-22T17:52:53.923Z,5.07
2022-11-22T17:56:11.531Z,5.15
2022-11-22T17:59:01.831Z,4.30
2022-11-22T18:01:49.543Z,4.15
2022-11-22T18:04:38.149Z,4.40
2022-11-22T18:07:28.483Z,4.63
2022-11-22T18:10:16.484Z,4.85
2022-11-22T18:13:20.935Z,4.60
2022-11-22T18:16:14.170Z,4.57
2022-11-22T18:19:02.104Z,4.57
2022-11-22T18:21:49.913Z,3.80
2022-11-22T18:24:37.734Z,4.50
2022-11-22T18:27:25.615Z,4.65
2022-11-22T18:30:14.899Z,4.50
2022-11-22T18:33:04.732Z,4.95
2022-11-22T18:36:00.192Z,4.47
2022-11-22T18:38:53.113Z,5.03
2022-11-22T18:41:48.212Z,5.00
2022-11-22T18:44:36.301Z,4.75
2022-11-22T18:47:23.960Z,4.82
2022-11-22T18:53:03.222Z,5.47
2022-11-22T18:55:50.846Z,4.85
2022-11-22T18:58:39.759Z,4.50
2022-11-22T19:01:27.824Z,6.93
2022-11-22T19:04:17.018Z,6.03
2022-11-22T19:07:31.636Z,7.57
2022-11-22T19:10:19.527Z,9.07
2022-11-22T19:13:07.785Z,6.70
2022-11-22T19:15:55.666Z,8.02
2022-11-22T19:18:44.006Z,9.20
2022-11-22T19:21:32.317Z,10.00
2022-11-22T19:24:21.623Z,8.40
2022-11-22T19:27:09.547Z,8.07
2022-11-22T19:29:57.411Z,7.80
2022-11-22T19:32:45.436Z,7.68
2022-11-22T19:35:36.591Z,7.28
2022-11-22T19:38:24.846Z,6.97
2022-11-22T19:41:16.768Z,7.97
2022-11-22T19:44:05.381Z,8.90
2022-11-22T19:46:53.355Z,7.78
2022-11-22T19:49:41.460Z,8.73
2022-11-22T19:52:29.357Z,8.05
2022-11-22T19:55:17.296Z,6.68
2022-11-22T19:58:07.112Z,7.68
2022-11-22T20:00:54.817Z,9.68
2022-11-22T20:03:44.425Z,6.82
2022-11-22T20:06:35.770Z,9.35
2022-11-22T20:09:24.044Z,8.80
2022-11-22T20:12:11.718Z,9.65
2022-11-22T20:15:01.070Z,9.15
2022-11-22T20:17:48.795Z,8.75
2022-11-22T20:20:36.732Z,7.68
2022-11-22T20:23:24.749Z,9.20
2022-11-22T20:26:14.801Z,9.20
2022-11-22T20:29:04.726Z,8.32
2022-11-22T20:31:54.020Z,7.35
2022-11-22T20:34:41.979Z,8.15
2022-11-22T20:37:29.945Z,7.88
2022-11-22T20:40:17.973Z,8.20
2022-11-22T20:43:05.665Z,8.80
2022-11-22T20:46:01.228Z,8.82
2022-11-22T20:48:52.656Z,7.03
2022-11-22T20:52:11.684Z,7.03
2022-11-22T20:55:04.817Z,8.40
2022-11-22T20:57:53.049Z,7.97
2022-11-22T21:00:41.320Z,8.00
2022-11-22T21:03:29.457Z,8.45
2022-11-22T21:06:20.637Z,6.95
2022-11-22T21:09:08.761Z,7.35
2022-11-22T21:11:57.004Z,6.75
2022-11-22T21:15:10.112Z,7.15
2022-11-22T21:18:23.647Z,6.80
2022-11-22T21:21:08.060Z,6.88
2022-11-22T21:23:59.320Z,6.53
2022-11-22T21:26:47.465Z,6.05
2022-11-22T21:29:35.439Z,6.38
2022-11-22T21:32:24.475Z,6.15
2022-11-22T21:35:12.650Z,6.03
2022-11-22T21:38:00.591Z,5.78
2022-11-22T21:41:05.603Z,6.00
2022-11-22T21:47:08.378Z,6.10
2022-11-22T21:49:56.453Z,6.60
2022-11-22T21:52:44.240Z,5.95
2022-11-22T21:55:32.172Z,5.85
2022-11-22T21:58:23.148Z,5.85
2022-11-22T22:01:14.310Z,6.63
2022-11-22T22:04:02.917Z,5.85
2022-11-22T22:06:50.892Z,5.90
2022-11-22T22:09:38.819Z,5.93
2022-11-22T22:12:26.711Z,5.60
2022-11-22T22:15:16.518Z,6.22
2022-11-22T22:18:04.415Z,5.07
2022-11-22T22:21:00.908Z,5.78
2022-11-22T22:23:49.036Z,6.38
2022-11-22T22:26:36.982Z,5.45
2022-11-22T22:29:24.978Z,6.05
2022-11-22T22:32:14.322Z,5.40
2022-11-22T22:35:02.347Z,5.70
2022-11-22T22:37:50.139Z,5.63
2022-11-22T22:40:38.090Z,5.63
2022-11-22T22:43:26.399Z,5.45
2022-11-22T22:46:16.918Z,6.10
2022-11-22T22:49:06.014Z,5.80
2022-11-22T22:51:55.224Z,5.68
2022-11-22T22:54:42.855Z,5.47
2022-11-22T22:57:30.854Z,5.05
2022-11-22T23:00:20.271Z,4.72
2022-11-22T23:03:08.428Z,5.55
2022-11-22T23:05:57.644Z,5.78
2022-11-22T23:08:47.207Z,5.18
2022-11-22T23:11:53.931Z,5.30
2022-11-22T23:14:42.227Z,5.10
2022-11-22T23:17:31.423Z,4.65
2022-11-22T23:20:19.248Z,4.90
2022-11-22T23:23:08.468Z,4.68
2022-11-22T23:30:17.510Z,4.97
2022-11-22T23:33:05.598Z,4.82
2022-11-22T23:35:53.802Z,4.88
2022-11-22T23:38:43.654Z,5.10
2022-11-22T23:41:31.454Z,5.28
2022-11-22T23:44:20.419Z,5.03
2022-11-22T23:47:08.286Z,4.72
2022-11-22T23:49:56.401Z,4.95
2022-11-22T23:52:44.436Z,4.63
2022-11-22T23:55:33.747Z,4.93
2022-11-22T23:58:21.549Z,4.50
